createdAt,value
2019-04-03T00:09:00.996Z,1.34
2019-04-03T00:19:01.035Z,1.98
2019-04-03T00:29:01.003Z,2.04
2019-04-03T00:39:00.933Z,2.24
2019-04-03T00:49:01.158Z,2.23
2019-04-03T00:59:00.957Z,1.80
2019-04-03T01:09:00.975Z,2.17
2019-04-03T01:19:00.942Z,1.17
2019-04-03T01:29:01.114Z,1.33
2019-04-03T01:39:00.948Z,0.86
2019-04-03T01:49:00.979Z,0.49
2019-04-03T01:59:01.081Z,0.56
2019-04-03T02:09:00.996Z,0.48
2019-04-03T02:19:01.007Z,0.23
2019-04-03T02:29:01.049Z,0.79
2019-04-03T02:39:01.029Z,0.51
2019-04-03T02:49:01.237Z,0.54
2019-04-03T02:59:01.047Z,0.59
2019-04-03T03:09:01.084Z,0.68
2019-04-03T03:19:01.743Z,0.54
2019-04-03T03:29:15.723Z,1.33
2019-04-03T03:39:00.999Z,1.88
2019-04-03T03:49:00.905Z,1.46
2019-04-03T03:59:00.964Z,1.56
2019-04-03T04:09:00.894Z,0.82
2019-04-03T04:19:01.020Z,1.01
2019-04-03T04:29:00.955Z,0.89
2019-04-03T04:39:00.908Z,0.41
2019-04-03T04:49:00.907Z,1.16
2019-04-03T04:59:01.016Z,1.75
2019-04-03T05:09:03.267Z,1.54
2019-04-03T05:19:09.782Z,1.20
2019-04-03T05:29:01.035Z,1.23
2019-04-03T05:39:02.706Z,1.08
2019-04-03T05:49:01.186Z,1.32
2019-04-03T05:59:02.548Z,0.78
2019-04-03T06:09:01.547Z,0.72
2019-04-03T06:29:07.757Z,1.05
2019-04-03T06:39:06.491Z,0.94
2019-04-03T06:49:08.487Z,1.09
2019-04-03T06:59:06.499Z,1.15
2019-04-03T07:19:11.421Z,1.07
2019-04-03T07:29:15.594Z,1.37
2019-04-03T07:39:12.515Z,1.77
2019-04-03T07:49:13.897Z,1.57
2019-04-03T07:59:11.899Z,1.31
2019-04-03T08:09:13.458Z,1.65
2019-04-03T08:19:11.933Z,1.56
2019-04-03T08:29:12.048Z,1.77
2019-04-03T08:39:15.170Z,1.83
2019-04-03T08:49:11.759Z,1.20
2019-04-03T08:59:12.876Z,1.93
2019-04-03T09:09:11.672Z,1.87
2019-04-03T09:19:11.668Z,2.01
2019-04-03T09:29:13.383Z,2.18
2019-04-03T09:39:13.930Z,3.24
2019-04-03T09:49:11.931Z,2.59
2019-04-03T09:59:15.024Z,2.09
2019-04-03T10:09:12.758Z,1.47
2019-04-03T10:19:13.628Z,2.44
2019-04-03T10:29:11.579Z,2.56
2019-04-03T10:39:11.583Z,3.27
2019-04-03T10:49:11.625Z,2.49
2019-04-03T10:59:13.560Z,3.63
2019-04-03T11:09:12.296Z,2.00
2019-04-03T11:19:12.790Z,2.81
2019-04-03T11:29:11.688Z,3.00
2019-04-03T11:39:14.930Z,2.69
2019-04-03T11:49:12.435Z,1.92
2019-04-03T11:59:12.961Z,1.98
2019-04-03T12:09:11.626Z,2.61
2019-04-03T12:19:15.042Z,3.20
2019-04-03T12:29:11.587Z,2.42
2019-04-03T12:39:12.029Z,2.68
2019-04-03T12:49:12.760Z,2.21
2019-04-03T12:59:11.712Z,2.91
2019-04-03T13:09:11.538Z,3.41
2019-04-03T13:19:14.857Z,1.88
2019-04-03T13:29:11.802Z,0.92
2019-04-03T13:39:11.990Z,2.24
2019-04-03T13:49:12.999Z,1.48
2019-04-03T13:59:11.886Z,1.67
2019-04-03T14:09:11.819Z,1.73
2019-04-03T14:19:15.469Z,2.40
2019-04-03T14:29:13.536Z,2.33
2019-04-03T14:39:11.585Z,1.42
2019-04-03T14:49:12.117Z,1.61
2019-04-03T14:59:13.787Z,2.56
2019-04-03T15:09:13.652Z,2.34
2019-04-03T15:19:14.105Z,2.33
2019-04-03T15:29:11.604Z,2.15
2019-04-03T15:39:11.530Z,3.23
2019-04-03T15:49:11.505Z,2.32
2019-04-03T15:59:12.163Z,3.24
2019-04-03T16:09:12.357Z,2.41
2019-04-03T16:19:12.113Z,2.78
2019-04-03T16:29:12.041Z,3.32
2019-04-03T16:39:11.712Z,4.32
2019-04-03T16:49:11.536Z,5.04
2019-04-03T16:59:11.739Z,4.36
2019-04-03T17:09:11.495Z,2.96
2019-04-03T17:19:11.515Z,1.81
2019-04-03T17:29:13.915Z,2.81
2019-04-03T17:39:11.505Z,1.55
2019-04-03T17:49:12.391Z,1.48
2019-04-03T17:59:11.443Z,1.46
2019-04-03T18:09:12.436Z,1.01
2019-04-03T18:19:11.479Z,1.33
2019-04-03T18:29:11.466Z,1.00
2019-04-03T18:39:11.419Z,0.95
2019-04-03T18:49:11.489Z,1.17
2019-04-03T18:59:11.461Z,1.59
2019-04-03T19:09:11.518Z,1.56
2019-04-03T19:19:11.665Z,1.79
2019-04-03T19:29:11.452Z,2.02
2019-04-03T19:39:11.522Z,1.37
2019-04-03T19:49:11.443Z,1.46
2019-04-03T19:59:11.507Z,1.46
2019-04-03T20:09:11.499Z,1.12
2019-04-03T20:19:11.417Z,1.08
2019-04-03T20:29:11.435Z,1.57
2019-04-03T20:39:11.462Z,1.79
2019-04-03T20:49:11.461Z,1.99
2019-04-03T20:59:12.111Z,1.87
2019-04-03T21:09:11.453Z,2.78
2019-04-03T21:19:11.491Z,2.44
2019-04-03T21:29:11.461Z,2.36
2019-04-03T21:39:12.955Z,1.60
2019-04-03T21:49:11.676Z,1.26
2019-04-03T21:59:11.528Z,1.57
2019-04-03T22:09:11.466Z,1.58
2019-04-03T22:19:11.455Z,2.62
2019-04-03T22:29:11.494Z,2.64
2019-04-03T22:39:13.637Z,2.77
2019-04-03T22:49:11.430Z,2.31
2019-04-03T22:59:11.491Z,2.46
2019-04-03T23:09:11.421Z,2.05
2019-04-03T23:19:11.369Z,2.31
2019-04-03T23:29:11.509Z,2.52
2019-04-03T23:39:11.404Z,2.49
2019-04-03T23:49:11.374Z,2.59
2019-04-03T23:59:13.154Z,2.87
